Time;durP1;ratioP1;P1;durP2;ratioP2;P2;SDS_P1;SDS_P2;PMS_P1;PMS_P2;Temp;Humidity;BMP_temperature;BMP_pressure;BME280_temperature;BME280_humidity;BME280_pressure;Samples;Min_cycle;Max_cycle;Signal;HPM_P1;HPM_P2
2022/08/14 00:02:14;;;;;;;8.95;7.03;;;;;;;25.30;41.98;98954.19;4458659;32;32921;-62
2022/08/14 00:04:42;;;;;;;11.93;7.68;;;;;;;25.16;42.45;98960.88;4457185;32;33077;-63
2022/08/14 00:07:12;;;;;;;10.82;7.72;;;;;;;25.14;42.48;98951.25;4458823;32;35392;-63
2022/08/14 00:09:42;;;;;;;10.13;7.87;;;;;;;25.07;42.57;98952.13;4465601;32;33910;-63
2022/08/14 00:12:37;;;;;;;9.30;6.60;;;;;;;25.08;42.46;98942.84;4461385;32;34251;-63
2022/08/14 00:15:15;;;;;;;7.57;5.30;;;;;;;24.85;43.00;98943.50;4457526;32;33552;-62
2022/08/14 00:17:44;;;;;;;9.45;7.22;;;;;;;25.04;42.50;98947.09;4462765;32;33918;-63
2022/08/14 00:20:22;;;;;;;11.30;8.13;;;;;;;25.08;42.37;98950.22;4465485;32;34980;-63
2022/08/14 00:22:58;;;;;;;11.18;8.45;;;;;;;24.95;42.68;98944.91;4467732;32;34265;-63
2022/08/14 00:25:39;;;;;;;10.07;8.05;;;;;;;25.01;42.55;98938.50;4452272;32;32498;-62
2022/08/14 00:28:10;;;;;;;13.75;7.53;;;;;;;24.96;42.83;98938.34;4465368;32;33757;-64
2022/08/14 00:30:45;;;;;;;;;;;;;;;25.03;42.63;98942.66;4458207;32;35063;-63
2022/08/14 00:33:13;;;;;;;11.07;8.27;;;;;;;24.95;42.92;98937.50;4454265;32;35541;-63
2022/08/14 00:35:45;;;;;;;10.68;7.75;;;;;;;24.87;43.13;98933.16;4458317;32;34402;-64
2022/08/14 00:38:33;;;;;;;12.73;8.30;;;;;;;24.83;43.40;98934.69;4464085;32;35053;-63
2022/08/14 00:41:03;;;;;;;14.48;9.07;;;;;;;24.91;43.06;98940.91;4467425;32;34013;-63
2022/08/14 00:43:33;;;;;;;9.70;7.55;;;;;;;24.89;43.02;98932.94;4454155;32;33947;-63
2022/08/14 00:46:05;;;;;;;12.77;7.78;;;;;;;24.95;42.88;98936.69;4446629;32;33577;-63
2022/08/14 00:48:35;;;;;;;10.38;7.93;;;;;;;25.02;42.73;98927.31;4441911;32;34773;-63
2022/08/14 00:51:07;;;;;;;10.63;7.32;;;;;;;24.85;42.98;98929.84;4454112;32;32210;-63
2022/08/14 00:53:36;;;;;;;9.50;6.20;;;;;;;24.85;42.92;98931.72;4457205;32;33988;-63
2022/08/14 00:56:07;;;;;;;9.25;7.12;;;;;;;24.85;42.97;98931.72;4456834;32;34712;-63
2022/08/14 00:58:35;;;;;;;11.93;8.02;;;;;;;24.75;43.19;98934.13;4454144;32;34915;-63
2022/08/14 01:01:13;;;;;;;10.68;7.70;;;;;;;24.71;43.25;98931.00;4460415;32;35616;-63
2022/08/14 01:03:44;;;;;;;9.30;6.90;;;;;;;24.78;43.03;98929.06;4454347;32;34213;-63
2022/08/14 01:06:16;;;;;;;11.48;8.32;;;;;;;24.84;42.84;98928.13;4458447;32;34354;-62
2022/08/14 01:08:45;;;;;;;9.73;7.30;;;;;;;24.55;43.60;98929.69;4459345;32;33963;-63
2022/08/14 01:11:26;;;;;;;10.10;7.90;;;;;;;24.72;43.30;98927.25;4463260;32;34243;-63
2022/08/14 01:14:03;;;;;;;9.50;6.70;;;;;;;24.58;43.62;98931.16;4461980;32;35012;-63
2022/08/14 01:16:51;;;;;;;11.23;8.25;;;;;;;24.56;43.66;98939.59;4461274;32;34573;-62
2022/08/14 01:22:10;;;;;;;10.18;6.22;;;;;;;24.56;43.48;98933.28;4453196;32;34131;-62
2022/08/14 01:24:40;;;;;;;10.57;8.15;;;;;;;24.58;43.28;98931.16;4464759;32;34272;-62
2022/08/14 01:27:18;;;;;;;11.95;8.30;;;;;;;24.55;43.21;98929.69;4460244;32;34209;-62
2022/08/14 01:29:47;;;;;;;11.95;8.80;;;;;;;24.56;43.23;98939.59;4467510;32;35074;-63
2022/08/14 01:32:32;;;;;;;10.32;8.40;;;;;;;24.45;43.46;98931.28;4460107;32;34112;-63
2022/08/14 01:35:09;;;;;;;11.80;8.32;;;;;;;24.35;43.78;98931.75;4454362;32;34157;-62
2022/08/14 01:37:57;;;;;;;7.68;4.85;;;;;;;24.22;44.09;98934.59;4457162;32;32083;-61
2022/08/14 01:40:27;;;;;;;8.02;5.43;;;;;;;24.35;43.78;98942.69;4465571;32;32661;-62
2022/08/14 01:43:16;;;;;;;9.95;7.20;;;;;;;24.22;44.13;98943.63;4453999;32;34115;-61
2022/08/14 01:45:52;;;;;;;10.48;7.35;;;;;;;24.28;43.99;98950.13;4453865;32;34024;-62
2022/08/14 01:48:33;;;;;;;10.27;7.70;;;;;;;24.32;43.93;98951.34;4458738;32;32205;-62
2022/08/14 01:51:05;;;;;;;9.60;7.07;;;;;;;24.36;43.79;98950.66;4458561;32;33373;-61
2022/08/14 01:53:48;;;;;;;12.60;8.80;;;;;;;24.27;44.07;98941.09;4460591;32;33062;-61
2022/08/14 01:56:38;;;;;;;10.77;8.35;;;;;;;24.28;44.10;98939.19;4455730;32;35275;-60
2022/08/14 01:59:08;;;;;;;12.32;8.52;;;;;;;24.37;43.83;98941.41;4458872;32;33585;-62
2022/08/14 02:01:42;;;;;;;14.32;8.18;;;;;;;24.42;43.66;98938.03;4466714;32;33085;-61
2022/08/14 02:04:33;;;;;;;13.57;8.43;;;;;;;24.41;43.70;98941.84;4464277;32;35281;-62
2022/08/14 02:07:20;;;;;;;14.82;8.25;;;;;;;24.39;43.74;98947.47;4454427;32;34257;-61
2022/08/14 02:10:10;;;;;;;12.10;8.82;;;;;;;24.27;43.94;98945.69;4453462;32;33000;-61
2022/08/14 02:12:45;;;;;;;11.15;8.02;;;;;;;24.25;44.02;98947.81;4452784;32;32842;-62
2022/08/14 02:15:21;;;;;;;9.77;6.97;;;;;;;24.23;44.04;98948.03;4463571;32;34089;-62
2022/08/14 02:17:49;;;;;;;10.20;8.23;;;;;;;24.27;43.92;98946.56;4458833;32;34046;-62
2022/08/14 02:20:17;;;;;;;10.25;8.10;;;;;;;24.09;44.30;98944.56;4457611;32;32134;-61
2022/08/14 02:22:50;;;;;;;9.98;5.75;;;;;;;24.07;44.31;98951.31;4455774;32;32476;-62
2022/08/14 02:25:21;;;;;;;11.60;7.28;;;;;;;24.09;44.30;98944.56;4453862;32;33867;-61
2022/08/14 02:27:55;;;;;;;12.48;6.75;;;;;;;24.02;44.56;98945.69;4458222;32;33849;-62
2022/08/14 02:30:43;;;;;;;10.50;7.87;;;;;;;23.85;45.07;98942.63;4452807;32;33401;-60
2022/08/14 02:33:12;;;;;;;11.02;7.50;;;;;;;23.80;45.24;98940.56;4460517;32;34727;-61
2022/08/14 02:35:42;;;;;;;10.88;7.62;;;;;;;23.92;45.02;98938.81;4452428;32;33869;-61
2022/08/14 02:38:14;;;;;;;9.52;6.30;;;;;;;23.92;45.06;98940.72;4461996;32;32872;-61
2022/08/14 02:40:57;;;;;;;9.07;6.75;;;;;;;23.84;45.36;98938.22;4461084;32;33317;-63
2022/08/14 02:43:29;;;;;;;12.57;7.10;;;;;;;23.99;45.07;98937.94;4463782;32;34631;-63
2022/08/14 02:46:12;;;;;;;15.05;8.45;;;;;;;24.05;44.91;98950.72;4454731;32;34001;-62
2022/08/14 02:48:47;;;;;;;12.23;7.35;;;;;;;23.99;45.05;98948.87;4453898;32;35076;-63
2022/08/14 02:51:33;;;;;;;8.48;5.93;;;;;;;23.92;45.22;98944.28;4453491;32;33694;-63
2022/08/14 02:54:01;;;;;;;14.07;8.35;;;;;;;23.99;45.02;98944.22;4465656;32;34988;-63
2022/08/14 02:56:31;;;;;;;11.38;8.32;;;;;;;23.99;45.13;98951.59;4462722;32;36177;-62
2022/08/14 02:59:19;;;;;;;10.43;7.43;;;;;;;23.88;45.38;98943.06;4453173;32;34865;-63
2022/08/14 03:01:47;;;;;;;12.25;7.93;;;;;;;23.59;46.32;98946.31;4438516;32;34382;-63
2022/08/14 03:04:21;;;;;;;8.23;6.20;;;;;;;23.63;46.21;98947.59;4466609;32;33484;-62
2022/08/14 03:06:49;;;;;;;10.35;6.65;;;;;;;23.70;46.01;98951.97;4462095;32;33889;-61
2022/08/14 03:09:36;;;;;;;12.10;8.57;;;;;;;23.63;46.27;98947.59;4459104;32;35038;-61
2022/08/14 03:12:23;;;;;;;12.75;7.82;;;;;;;23.45;46.70;98954.59;4464878;32;34354;-62
2022/08/14 03:15:07;;;;;;;10.80;8.13;;;;;;;23.59;46.35;98947.16;4457280;32;34998;-61
2022/08/14 03:17:43;;;;;;;12.48;8.10;;;;;;;23.58;46.28;98948.22;4455644;32;33896;-62
2022/08/14 03:20:27;;;;;;;10.02;7.22;;;;;;;23.62;46.06;98949.47;4454800;32;33868;-62
2022/08/14 03:22:58;;;;;;;13.65;8.82;;;;;;;23.68;45.90;98947.75;4453070;32;33539;-61
2022/08/14 03:25:30;;;;;;;11.68;8.55;;;;;;;23.59;46.05;98954.53;4463076;32;33699;-62
2022/08/14 03:28:02;;;;;;;13.23;8.20;;;;;;;23.55;46.30;98959.59;4460977;32;34085;-62
2022/08/14 03:30:30;;;;;;;12.48;9.02;;;;;;;23.54;46.34;98949.72;4458481;32;35128;-62
2022/08/14 03:33:11;;;;;;;11.82;6.37;;;;;;;23.55;46.37;98953.28;4467076;32;33696;-62
2022/08/14 03:35:41;;;;;;;12.23;8.90;;;;;;;23.64;46.19;98951.97;4458453;32;34705;-62
2022/08/14 03:38:29;;;;;;;11.90;6.82;;;;;;;23.63;46.27;98953.88;4446189;32;32608;-62
2022/08/14 03:41:22;;;;;;;9.48;6.37;;;;;;;23.56;46.86;98965.88;4465330;32;34326;-62
2022/08/14 03:43:54;;;;;;;10.63;7.97;;;;;;;23.71;46.57;98950.09;4453482;32;34894;-61
2022/08/14 03:46:42;;;;;;;10.50;8.10;;;;;;;23.71;46.58;98952.81;4456585;32;32600;-62
2022/08/14 03:49:23;;;;;;;13.13;9.70;;;;;;;23.61;46.93;98947.78;4463131;32;35137;-61
2022/08/14 03:51:57;;;;;;;12.63;8.30;;;;;;;23.52;47.38;98960.03;4453128;32;34972;-62
2022/08/14 03:54:28;;;;;;;11.82;8.65;;;;;;;23.53;47.45;98952.66;4459875;32;32510;-62
2022/08/14 03:56:59;;;;;;;16.08;8.90;;;;;;;23.50;47.59;98951.22;4456044;32;33789;-62
2022/08/14 03:59:33;;;;;;;13.13;9.50;;;;;;;23.46;47.62;98956.25;4453539;32;34060;-61
2022/08/14 04:02:02;;;;;;;12.80;9.15;;;;;;;23.45;47.62;98953.75;4460997;32;33028;-61
2022/08/14 04:04:51;;;;;;;15.10;10.48;;;;;;;23.44;47.80;98954.81;4464907;32;33653;-61
2022/08/14 04:07:19;;;;;;;11.73;7.93;;;;;;;23.47;47.66;98951.66;4468329;32;32309;-61
2022/08/14 04:09:48;;;;;;;17.90;8.70;;;;;;;23.51;47.64;98962.97;4466403;32;33801;-63
2022/08/14 04:12:20;;;;;;;14.70;9.02;;;;;;;23.58;47.44;98958.31;4472095;32;35204;-61
2022/08/14 04:14:53;;;;;;;12.02;6.97;;;;;;;23.57;47.47;98959.38;4468355;32;32448;-61
2022/08/14 04:17:21;;;;;;;11.43;8.77;;;;;;;23.54;47.51;98968.00;4465790;32;33948;-61
2022/08/14 04:19:49;;;;;;;11.60;8.55;;;;;;;23.46;47.64;98967.19;4459548;32;33654;-61
2022/08/14 04:22:20;;;;;;;10.23;6.87;;;;;;;23.27;48.38;98968.09;4463812;32;34104;-62
2022/08/14 04:24:49;;;;;;;13.62;9.50;;;;;;;23.35;48.36;98970.59;4470360;32;33503;-61
2022/08/14 04:27:17;;;;;;;11.98;7.80;;;;;;;23.41;48.29;98966.19;4471159;32;33672;-61
2022/08/14 04:29:44;;;;;;;15.93;10.18;;;;;;;23.48;48.19;98966.97;4466353;32;34085;-61
2022/08/14 04:32:14;;;;;;;12.32;9.18;;;;;;;23.52;48.19;98970.09;4458297;32;33098;-63
2022/08/14 04:35:02;;;;;;;10.75;8.13;;;;;;;23.58;48.05;98964.63;4457804;32;34733;-63
2022/08/14 04:46:14;;;;;;;14.02;9.35;;;;;;;23.96;47.37;98979.37;4458035;32;34471;-62
2022/08/14 04:49:03;;;;;;;10.60;7.50;;;;;;;24.05;47.21;98967.94;4469133;32;33650;-62
2022/08/14 04:51:34;;;;;;;12.93;10.15;;;;;;;24.22;46.98;98973.72;4469020;32;33961;-62
2022/08/14 04:54:13;;;;;;;11.73;9.05;;;;;;;24.23;47.11;98969.91;4454359;32;33300;-63
2022/08/14 04:56:43;;;;;;;15.27;11.90;;;;;;;23.95;47.75;98962.13;4465710;32;33405;-62
2022/08/14 04:59:11;;;;;;;16.25;11.60;;;;;;;24.26;47.15;98969.47;4470576;32;33931;-64
2022/08/14 05:01:43;;;;;;;14.35;11.00;;;;;;;24.24;47.23;98968.00;4468490;32;33890;-63
2022/08/14 05:04:16;;;;;;;13.82;10.48;;;;;;;24.39;46.85;98969.34;4464933;32;32924;-64
2022/08/14 05:06:49;;;;;;;14.85;10.60;;;;;;;24.57;46.39;98976.81;4440932;32;32087;-63
2022/08/14 05:09:22;;;;;;;14.57;11.27;;;;;;;24.63;46.23;98980.56;4464978;32;33710;-62
2022/08/14 05:11:51;;;;;;;13.57;11.10;;;;;;;24.79;45.91;98970.94;4457708;32;35140;-62
2022/08/14 05:14:21;;;;;;;13.77;10.60;;;;;;;24.82;45.98;98979.53;4463577;32;34101;-63
2022/08/14 05:17:12;;;;;;;19.08;10.15;;;;;;;24.88;46.04;98977.81;4459326;32;34621;-63
2022/08/14 05:19:40;;;;;;;14.55;10.20;;;;;;;25.12;45.63;98972.50;4445985;32;33271;-63
2022/08/14 05:22:27;;;;;;;15.60;10.63;;;;;;;25.22;45.37;98976.41;4463919;32;34116;-64
2022/08/14 05:24:55;;;;;;;14.75;10.50;;;;;;;25.31;45.21;98969.56;4461982;32;32633;-63
2022/08/14 05:27:22;;;;;;;12.82;9.77;;;;;;;25.23;45.67;98975.34;4458410;32;33705;-63
2022/08/14 05:29:52;;;;;;;13.95;10.73;;;;;;;25.49;45.22;98976.06;4458952;32;35096;-62
2022/08/14 05:32:22;;;;;;;14.18;9.88;;;;;;;25.59;44.99;98975.56;4459812;32;35356;-64
2022/08/14 05:34:56;;;;;;;17.77;11.20;;;;;;;25.66;44.88;98968.91;4455227;32;35103;-63
2022/08/14 05:37:26;;;;;;;14.45;9.48;;;;;;;25.90;44.46;98978.06;4461880;32;32879;-62
2022/08/14 05:39:55;;;;;;;12.32;9.70;;;;;;;26.06;44.11;98978.50;4453966;32;34014;-63
2022/08/14 05:42:23;;;;;;;13.68;9.80;;;;;;;26.08;44.30;98970.88;4460403;32;33903;-62
2022/08/14 05:44:58;;;;;;;13.27;9.50;;;;;;;26.00;44.48;98977.50;4461802;32;34044;-62
2022/08/14 05:47:26;;;;;;;12.82;9.88;;;;;;;26.22;44.11;98978.66;4459574;32;34869;-62
2022/08/14 05:50:01;;;;;;;12.15;9.30;;;;;;;26.18;44.16;98982.94;4460673;32;32742;-63
2022/08/14 05:52:29;;;;;;;12.23;9.57;;;;;;;25.95;44.34;98986.44;4456386;32;35121;-62
2022/08/14 05:55:08;;;;;;;11.68;9.02;;;;;;;26.14;44.10;98981.75;4455341;32;34865;-62
2022/08/14 05:57:46;;;;;;;13.00;8.77;;;;;;;26.38;43.61;98979.87;4466204;32;33346;-62
2022/08/14 06:00:16;;;;;;;13.15;9.02;;;;;;;26.40;43.70;98976.91;4457125;32;32073;-62
2022/08/14 06:03:00;;;;;;;14.50;9.00;;;;;;;26.32;43.79;98985.47;4452591;32;33939;-64
2022/08/14 06:05:34;;;;;;;13.45;8.85;;;;;;;26.09;44.09;98976.12;4458986;32;34390;-62
2022/08/14 06:08:14;;;;;;;10.60;8.68;;;;;;;26.04;44.57;98977.91;4463151;32;34358;-62
2022/08/14 06:11:04;;;;;;;11.18;8.75;;;;;;;26.10;44.56;98980.56;4458200;32;33683;-64
2022/08/14 06:13:36;;;;;;;11.30;8.68;;;;;;;26.60;43.39;98974.69;4460740;32;35177;-63
2022/08/14 06:16:16;;;;;;;10.90;8.30;;;;;;;26.39;44.34;98967.84;4456453;32;34707;-64
2022/08/14 06:18:47;;;;;;;12.50;8.82;;;;;;;26.50;43.81;98971.72;4450642;32;34724;-63
2022/08/14 06:21:21;;;;;;;10.68;8.23;;;;;;;26.69;43.50;98965.03;4457450;32;34758;-63
2022/08/14 06:23:50;;;;;;;10.85;8.35;;;;;;;26.35;44.78;98968.53;4456812;32;33656;-63
2022/08/14 06:26:18;;;;;;;10.77;8.52;;;;;;;26.77;44.00;98965.75;4461892;32;32966;-63
2022/08/14 06:28:49;;;;;;;11.98;8.70;;;;;;;27.09;43.60;98968.94;4459109;32;35004;-62
2022/08/14 06:31:19;;;;;;;12.07;7.70;;;;;;;26.95;43.51;98969.19;4460491;32;33796;-62
2022/08/14 06:33:47;;;;;;;11.35;8.63;;;;;;;27.12;43.04;98974.78;4460047;32;33829;-63
2022/08/14 06:36:37;;;;;;;11.25;8.70;;;;;;;27.17;43.29;98961.22;4464434;32;33914;-64
2022/08/14 06:39:06;;;;;;;10.85;7.55;;;;;;;27.39;42.82;98966.91;4463845;32;33447;-62
2022/08/14 06:41:38;;;;;;;10.43;7.60;;;;;;;27.31;42.43;98972.75;4459352;32;35124;-63
2022/08/14 06:44:26;;;;;;;15.90;11.25;;;;;;;26.93;42.23;98970.50;4453312;32;33988;-63
2022/08/14 06:47:03;;;;;;;10.70;7.30;;;;;;;27.24;42.01;98966.56;4458092;32;34946;-62
2022/08/14 06:49:32;;;;;;;10.20;7.20;;;;;;;27.28;42.12;98959.50;4459567;32;34554;-63
2022/08/14 06:52:13;;;;;;;10.95;6.25;;;;;;;27.58;41.62;98956.56;4454414;32;33521;-63
2022/08/14 06:54:43;;;;;;;9.52;7.15;;;;;;;27.58;41.65;98956.56;4454366;32;33461;-63
2022/08/14 06:57:11;;;;;;;11.15;7.12;;;;;;;26.81;43.17;98950.50;4456768;32;33918;-63
2022/08/14 06:59:40;;;;;;;11.95;7.60;;;;;;;27.26;41.97;98947.13;4451015;32;32331;-61
2022/08/14 07:07:50;;;;;;;10.23;7.35;;;;;;;27.42;42.05;98943.59;4459392;32;35119;-62
2022/08/14 07:10:20;;;;;;;11.25;7.62;;;;;;;27.53;41.64;98941.87;4464652;32;33421;-63
2022/08/14 07:12:52;;;;;;;11.40;7.75;;;;;;;27.31;42.58;98949.94;4455361;32;33525;-63
2022/08/14 07:15:31;;;;;;;10.77;7.30;;;;;;;27.40;42.15;98943.00;4458413;32;33757;-62
2022/08/14 07:18:07;;;;;;;10.20;7.15;;;;;;;27.48;42.82;98953.62;4456173;32;35043;-63
2022/08/14 07:20:37;;;;;;;12.52;7.10;;;;;;;27.29;42.46;98950.22;4465680;32;33608;-63
2022/08/14 07:23:07;;;;;;;10.30;8.10;;;;;;;27.42;42.45;98951.84;4461493;32;34829;-62
2022/08/14 07:25:46;;;;;;;9.80;6.93;;;;;;;27.50;42.51;98947.88;4453836;32;34959;-63
2022/08/14 07:28:19;;;;;;;8.55;6.60;;;;;;;27.54;42.60;98944.38;4459896;32;32757;-63
2022/08/14 07:30:49;;;;;;;9.52;6.65;;;;;;;27.69;42.37;98945.75;4452870;32;34636;-63
2022/08/14 07:33:20;;;;;;;12.20;7.32;;;;;;;27.59;42.23;98940.91;4452487;32;32980;-62
2022/08/14 07:35:58;;;;;;;9.48;7.00;;;;;;;27.60;43.11;98948.06;4461862;32;34099;-63
2022/08/14 07:38:26;;;;;;;10.40;7.28;;;;;;;27.92;41.79;98950.34;4459327;32;32622;-62
2022/08/14 07:41:04;;;;;;;10.43;7.40;;;;;;;27.76;41.55;98951.94;4466415;32;32467;-62
2022/08/14 07:43:40;;;;;;;9.38;7.30;;;;;;;27.98;41.76;98943.88;4453932;32;33494;-63
2022/08/14 07:46:08;;;;;;;9.20;7.18;;;;;;;28.24;41.08;98948.72;4459981;32;33670;-64
2022/08/14 07:48:40;;;;;;;10.32;7.43;;;;;;;27.69;41.92;98949.34;4457847;32;34244;-63
2022/08/14 07:51:09;;;;;;;9.93;7.15;;;;;;;28.07;41.46;98948.72;4464399;32;33403;-64
2022/08/14 07:53:39;;;;;;;8.95;7.00;;;;;;;28.31;41.23;98943.91;4460514;32;34737;-63
2022/08/14 07:56:10;;;;;;;11.43;8.15;;;;;;;28.57;40.25;98944.31;4454252;32;33928;-62
2022/08/14 07:58:58;;;;;;;10.13;7.12;;;;;;;28.58;40.95;98943.25;4455283;32;32326;-62
2022/08/14 08:01:28;;;;;;;10.57;6.78;;;;;;;28.16;41.42;98940.06;4454228;32;34868;-64
2022/08/14 08:04:00;;;;;;;10.05;6.78;;;;;;;28.63;40.89;98937.00;4457018;32;32502;-62
2022/08/14 08:06:29;;;;;;;13.82;7.37;;;;;;;28.51;40.59;98940.69;4458020;32;33662;-63
2022/08/14 08:08:59;;;;;;;12.77;7.57;;;;;;;28.53;40.55;98938.50;4437974;32;33951;-64
2022/08/14 08:11:34;;;;;;;9.60;7.60;;;;;;;28.77;39.99;98941.91;4449340;32;33341;-63
2022/08/14 08:14:08;;;;;;;;;;;;;;;28.86;39.85;98942.31;4459839;32;33967;-63
2022/08/14 08:16:47;;;;;;;10.18;7.32;;;;;;;28.46;41.13;98943.34;4456969;32;34012;-62
2022/08/14 08:19:18;;;;;;;9.82;7.20;;;;;;;28.93;39.98;98939.38;4443315;32;35247;-63
2022/08/14 08:21:46;;;;;;;10.30;7.37;;;;;;;28.48;40.58;98943.09;4447285;32;33302;-63
2022/08/14 08:24:15;;;;;;;9.07;6.87;;;;;;;28.27;40.03;98944.66;4460619;32;33885;-62
2022/08/14 08:26:48;;;;;;;9.70;7.18;;;;;;;28.86;39.24;98938.69;4454812;32;35043;-63
2022/08/14 08:29:18;;;;;;;11.45;7.35;;;;;;;28.91;39.59;98930.53;4451518;32;34995;-62
2022/08/14 08:31:55;;;;;;;9.15;6.60;;;;;;;29.07;39.06;98931.59;4459013;32;33707;-63
2022/08/14 08:34:44;;;;;;;19.23;8.10;;;;;;;29.37;38.63;98931.16;4457823;32;33633;-63
2022/08/14 08:37:13;;;;;;;11.85;6.80;;;;;;;29.45;38.27;98927.94;4445323;32;31220;-64
2022/08/14 08:39:42;;;;;;;11.48;6.60;;;;;;;29.42;37.43;98928.47;4451114;32;34249;-63
2022/08/14 08:42:31;;;;;;;10.75;7.15;;;;;;;29.30;37.54;98934.09;4456816;32;33400;-64
2022/08/14 08:45:09;;;;;;;10.02;6.87;;;;;;;29.27;38.05;98926.34;4456588;32;34816;-63
2022/08/14 08:47:39;;;;;;;8.30;6.62;;;;;;;29.02;38.43;98927.69;4454721;32;34038;-63
2022/08/14 08:50:21;;;;;;;10.50;6.68;;;;;;;29.13;37.91;98927.81;4457350;32;34048;-63
2022/08/14 08:53:00;;;;;;;10.55;6.90;;;;;;;29.82;36.76;98936.38;4454914;32;33500;-64
2022/08/14 08:55:31;;;;;;;9.30;7.05;;;;;;;29.82;37.32;98933.63;4451510;32;33780;-63
2022/08/14 08:58:03;;;;;;;9.63;7.40;;;;;;;29.92;36.99;98930.97;4454204;32;34073;-62
2022/08/14 09:00:41;;;;;;;9.40;7.22;;;;;;;29.63;37.51;98921.28;4456438;32;34244;-63
2022/08/14 09:03:14;;;;;;;11.88;6.45;;;;;;;29.98;37.12;98917.22;4455784;32;34125;-64
2022/08/14 09:05:54;;;;;;;10.00;7.35;;;;;;;29.80;37.13;98915.69;4453057;32;33960;-63
2022/08/14 09:08:25;;;;;;;9.85;7.50;;;;;;;30.09;36.69;98917.06;4455138;32;33895;-63
2022/08/14 09:11:05;;;;;;;13.05;7.70;;;;;;;30.10;37.15;98915.12;4437033;32;32467;-63
2022/08/14 09:13:51;;;;;;;11.40;7.30;;;;;;;30.28;36.73;98913.94;4451548;32;33545;-64
2022/08/14 09:16:21;;;;;;;11.00;7.12;;;;;;;30.61;36.27;98905.34;4454583;32;34929;-63
2022/08/14 09:18:51;;;;;;;10.23;6.93;;;;;;;30.09;37.04;98906.03;4458052;32;33971;-64
2022/08/14 09:21:21;;;;;;;11.85;7.68;;;;;;;30.38;36.54;98906.56;4454148;32;32942;-63
2022/08/14 09:23:54;;;;;;;9.93;7.28;;;;;;;30.58;35.77;98903.13;4458948;32;35388;-63
2022/08/14 09:26:43;;;;;;;12.05;7.80;;;;;;;30.72;35.83;98897.94;4461082;32;33473;-64
2022/08/14 09:29:17;;;;;;;9.63;7.57;;;;;;;30.73;35.09;98896.03;4455398;32;34068;-63
2022/08/14 09:31:53;;;;;;;10.48;7.68;;;;;;;30.71;35.09;98890.78;4460690;32;32470;-63
2022/08/14 09:34:36;;;;;;;;;;;;;;;30.58;35.13;98894.84;4450861;32;34245;-63
2022/08/14 09:37:48;;;;;;;9.18;6.93;;;;;;;30.73;34.81;98896.03;4456268;32;35366;-64
2022/08/14 09:40:47;;;;;;;9.80;7.05;;;;;;;30.42;35.09;98895.00;4436515;32;35024;-63
2022/08/14 09:43:29;;;;;;;12.02;7.30;;;;;;;30.74;34.52;98883.88;4454400;32;34132;-63
2022/08/14 09:45:58;;;;;;;10.60;5.90;;;;;;;31.12;33.73;98887.44;4458455;32;34433;-63
2022/08/14 09:48:29;;;;;;;9.80;7.05;;;;;;;31.23;31.92;98884.41;4457773;32;33610;-64
2022/08/14 09:50:58;;;;;;;8.30;5.80;;;;;;;30.62;32.73;98884.91;4454217;32;33783;-64
2022/08/14 09:53:42;;;;;;;9.50;6.05;;;;;;;30.81;32.64;98884.50;4456828;32;35163;-64
2022/08/14 09:56:43;;;;;;;8.40;5.93;;;;;;;31.50;30.94;98883.44;4459090;32;34135;-65
2022/08/14 09:59:14;;;;;;;8.27;5.93;;;;;;;31.57;29.89;98867.41;4459951;32;33891;-63
2022/08/14 10:01:43;;;;;;;7.95;6.07;;;;;;;31.49;30.50;98870.72;4448328;32;35114;-63
2022/08/14 10:04:23;;;;;;;7.60;5.20;;;;;;;31.51;29.98;98874.88;4459376;32;32802;-63
2022/08/14 10:07:08;;;;;;;8.05;5.78;;;;;;;31.43;29.98;98878.19;4456969;32;33634;-64
2022/08/14 10:09:47;;;;;;;6.53;4.72;;;;;;;31.49;29.29;98876.22;4451447;32;35029;-64
2022/08/14 10:12:47;;;;;;;9.32;4.50;;;;;;;31.68;26.10;98869.09;4453203;32;33553;-63
2022/08/14 10:15:21;;;;;;;7.28;4.28;;;;;;;31.70;24.41;98866.06;4454476;32;33832;-64
2022/08/14 10:18:02;;;;;;;7.00;5.12;;;;;;;31.62;25.65;98864.69;4458329;32;33595;-64
2022/08/14 10:20:32;;;;;;;7.62;5.00;;;;;;;32.17;26.03;98868.62;4448714;32;33860;-64
2022/08/14 10:23:13;;;;;;;6.95;5.15;;;;;;;32.41;26.13;98866.09;4454142;32;33774;-64
2022/08/14 10:25:51;;;;;;;7.20;5.10;;;;;;;32.82;25.99;98871.56;4445428;32;33145;-64
2022/08/14 10:28:21;;;;;;;8.85;4.85;;;;;;;33.15;26.05;98863.72;4459222;32;34741;-63
2022/08/14 10:31:36;;;;;;;7.25;5.22;;;;;;;33.13;25.38;98872.34;4457585;32;34456;-64
2022/08/14 10:34:17;;;;;;;7.78;5.47;;;;;;;32.53;27.09;98871.38;4439064;32;33843;-63
2022/08/14 10:36:49;;;;;;;11.30;6.15;;;;;;;33.48;25.51;98873.25;4450371;32;33909;-64
2022/08/14 10:39:29;;;;;;;10.23;5.10;;;;;;;33.34;25.56;98861.97;4457444;32;33583;-64
2022/08/14 10:42:20;;;;;;;8.55;5.10;;;;;;;33.36;25.20;98865.28;4451695;32;34889;-64
2022/08/14 10:44:49;;;;;;;8.43;5.37;;;;;;;33.51;25.00;98852.47;4458264;32;33901;-65
2022/08/14 10:47:19;;;;;;;7.50;5.18;;;;;;;33.54;24.75;98855.50;4463542;32;35217;-64
2022/08/14 10:50:08;;;;;;;8.48;4.78;;;;;;;33.06;25.80;98871.78;4453406;32;32447;-64
2022/08/14 10:52:41;;;;;;;8.77;5.37;;;;;;;33.28;25.06;98863.09;4451810;32;33616;-64
2022/08/14 10:55:13;;;;;;;7.78;5.18;;;;;;;32.74;25.55;98868.53;4438658;32;34664;-64
2022/08/14 10:57:51;;;;;;;6.95;5.07;;;;;;;33.57;24.78;98857.69;4453562;32;33058;-64
2022/08/14 11:00:25;;;;;;;6.47;4.78;;;;;;;33.19;24.37;98850.94;4453299;32;34894;-65
2022/08/14 11:03:12;;;;;;;10.38;4.80;;;;;;;32.77;25.60;98856.91;4457843;32;32727;-64
2022/08/14 11:05:49;;;;;;;6.07;4.37;;;;;;;33.45;24.25;98851.63;4460925;32;34950;-64
2022/08/14 11:08:30;;;;;;;6.45;4.78;;;;;;;33.11;24.01;98851.56;4459453;32;33976;-64
2022/08/14 11:11:00;;;;;;;6.05;4.28;;;;;;;33.58;23.98;98861.28;4455168;32;33220;-64
2022/08/14 11:13:30;;;;;;;6.82;4.53;;;;;;;33.49;22.48;98854.69;4453660;32;32577;-64
2022/08/14 11:16:00;;;;;;;7.32;4.70;;;;;;;33.82;22.22;98845.59;4468380;32;34115;-64
2022/08/14 11:18:29;;;;;;;7.43;4.72;;;;;;;33.88;21.88;98831.69;4460838;32;32525;-64
2022/08/14 11:21:06;;;;;;;6.82;3.97;;;;;;;34.22;20.84;98837.22;4449483;32;33509;-65
2022/08/14 11:23:38;;;;;;;8.10;4.15;;;;;;;34.26;20.84;98825.25;4436475;32;34657;-64
2022/08/14 11:26:12;;;;;;;6.28;4.47;;;;;;;34.18;21.21;98834.22;4458169;32;35009;-64
2022/08/14 11:28:46;;;;;;;6.87;4.75;;;;;;;33.92;21.61;98825.25;4439622;32;33452;-65
2022/08/14 11:31:19;;;;;;;7.20;5.07;;;;;;;33.79;22.28;98823.16;4452859;32;34368;-64
2022/08/14 11:33:51;;;;;;;7.03;4.95;;;;;;;33.46;23.48;98825.56;4453843;32;33607;-65
2022/08/14 11:36:22;;;;;;;6.57;4.70;;;;;;;33.00;24.29;98819.44;4447491;32;33899;-65
2022/08/14 11:39:01;;;;;;;6.87;4.82;;;;;;;32.83;24.25;98816.97;4450379;32;31863;-65
2022/08/14 11:41:36;;;;;;;7.22;4.93;;;;;;;33.39;23.32;98819.53;4455603;32;32181;-64
2022/08/14 11:44:15;;;;;;;9.15;5.40;;;;;;;34.26;22.92;98803.06;4450363;32;33842;-65
2022/08/14 11:47:04;;;;;;;6.68;4.72;;;;;;;33.79;23.50;98806.50;4450926;32;32778;-64
2022/08/14 11:49:33;;;;;;;9.98;5.28;;;;;;;34.26;22.61;98794.72;4455456;32;32830;-64
2022/08/14 11:52:01;;;;;;;8.00;5.30;;;;;;;33.73;23.78;98799.31;4454724;32;34683;-64
2022/08/14 11:54:29;;;;;;;8.60;5.18;;;;;;;33.70;23.87;98788.81;4454710;32;33680;-64
2022/08/14 11:57:02;;;;;;;7.95;4.45;;;;;;;33.77;23.79;98780.97;4457349;32;35269;-64
2022/08/14 11:59:32;;;;;;;6.32;4.60;;;;;;;33.37;24.11;98791.22;4441522;32;33946;-64
2022/08/14 12:02:14;;;;;;;6.90;4.95;;;;;;;33.11;23.80;98783.06;4450100;32;33455;-64
2022/08/14 12:05:03;;;;;;;7.43;4.82;;;;;;;33.46;23.88;98781.19;4438174;32;32254;-64
2022/08/14 12:07:35;;;;;;;8.35;5.47;;;;;;;33.78;22.94;98775.16;4450191;32;34870;-64
2022/08/14 12:10:17;;;;;;;6.87;5.07;;;;;;;33.60;23.51;98773.87;4446143;32;33836;-66
2022/08/14 12:12:55;;;;;;;7.03;5.05;;;;;;;33.21;24.27;98773.03;4452590;32;34775;-63
2022/08/14 12:15:33;;;;;;;7.25;4.60;;;;;;;33.36;23.92;98776.53;4460788;32;33361;-66
2022/08/14 12:18:05;;;;;;;8.50;4.90;;;;;;;33.96;23.08;98767.22;4440537;32;32370;-65
2022/08/14 12:20:43;;;;;;;7.45;4.40;;;;;;;33.77;23.23;98769.88;4453088;32;32502;-64
2022/08/14 12:23:24;;;;;;;6.18;4.18;;;;;;;33.96;23.03;98765.25;4452076;32;33542;-66
2022/08/14 12:26:05;;;;;;;5.85;3.85;;;;;;;33.50;22.68;98773.16;4451213;32;33890;-64